Vandalia, Michigan
Current Conditions -  °F | °C
As of 5:15 PM on Tuesday 21 Oct 2014 (Local Time) from KHAI Reporting Station
Overcast Overcast  
Wind Chill: 47°   Ceiling: 2700
Heat Index: 49°   Visibility: 10mi
Dew Point: 40°   Wind: 6mph
Humidity: 71%   Direction: 350°N
Pressure: 30.15"   Gusts: NA
Location:  41.92°N, 85.91°W
Report Text: KHAI 212115Z AUTO 35005KT 10SM OVC027 10/04 A3015 RMK AO2 T00950044
Loading
Personal Weather Stations






























Interactive Weather Map
Tropical Storm Tracking
New forecast layout! Learn more

10-Day Weather Forecast

Advertisements
Track Severe Weather on mobile